createdAt,value
2023-12-07T00:01:57.904Z,94.49
2023-12-07T00:04:24.651Z,94.50
2023-12-07T00:06:51.303Z,94.52
2023-12-07T00:09:17.815Z,94.35
2023-12-07T00:11:44.245Z,94.31
2023-12-07T00:14:10.716Z,94.49
2023-12-07T00:16:37.121Z,94.23
2023-12-07T00:19:03.666Z,94.21
2023-12-07T00:21:30.910Z,94.22
2023-12-07T00:23:57.630Z,94.22
2023-12-07T00:26:24.144Z,94.45
2023-12-07T00:28:51.008Z,94.61
2023-12-07T00:31:17.857Z,94.65
2023-12-07T00:33:46.620Z,94.11
2023-12-07T00:36:13.711Z,94.15
2023-12-07T00:38:40.293Z,93.98
2023-12-07T00:41:06.798Z,94.34
2023-12-07T00:43:34.908Z,94.54
2023-12-07T00:46:03.799Z,94.22
2023-12-07T00:48:30.612Z,94.15
2023-12-07T00:50:57.171Z,94.24
2023-12-07T00:53:23.595Z,94.56
2023-12-07T00:55:50.237Z,94.48
2023-12-07T01:00:36.224Z,94.63
2023-12-07T01:03:02.692Z,94.61
2023-12-07T01:05:29.203Z,94.65
2023-12-07T01:07:55.698Z,94.87
2023-12-07T01:10:22.177Z,95.43
2023-12-07T01:12:48.639Z,95.93
2023-12-07T01:15:15.337Z,96.11
2023-12-07T01:17:41.837Z,96.20
2023-12-07T01:20:13.489Z,96.28
2023-12-07T01:22:42.353Z,96.35
2023-12-07T01:25:09.363Z,96.34
2023-12-07T01:27:36.118Z,96.38
2023-12-07T01:30:02.698Z,96.34
2023-12-07T01:32:29.181Z,96.00
2023-12-07T01:34:55.643Z,95.86
2023-12-07T01:37:22.186Z,95.69
2023-12-07T01:39:48.689Z,95.61
2023-12-07T01:42:16.634Z,95.67
2023-12-07T01:44:43.099Z,95.70
2023-12-07T01:47:11.409Z,95.77
2023-12-07T01:49:39.011Z,95.99
2023-12-07T01:52:07.028Z,96.18
2023-12-07T01:54:34.175Z,96.19
2023-12-07T01:57:00.708Z,96.07
2023-12-07T01:59:27.218Z,95.89
2023-12-07T02:01:53.947Z,95.80
2023-12-07T02:04:20.670Z,95.91
2023-12-07T02:06:47.331Z,96.05
2023-12-07T02:09:13.965Z,96.05
2023-12-07T02:11:40.382Z,96.07
2023-12-07T02:14:06.883Z,95.91
2023-12-07T02:16:47.053Z,95.64
2023-12-07T02:19:24.489Z,95.05
2023-12-07T02:21:57.673Z,95.32
2023-12-07T02:24:29.073Z,95.60
2023-12-07T02:26:55.576Z,95.53
2023-12-07T02:29:22.008Z,95.44
2023-12-07T02:31:48.971Z,95.51
2023-12-07T02:34:15.763Z,95.44
2023-12-07T02:36:45.008Z,95.52
2023-12-07T02:39:13.690Z,95.43
2023-12-07T02:41:42.284Z,95.32
2023-12-07T02:44:09.054Z,95.39
2023-12-07T02:46:35.726Z,95.32
2023-12-07T02:49:02.423Z,95.37
2023-12-07T02:51:29.301Z,95.23
2023-12-07T02:53:55.731Z,95.18
2023-12-07T02:56:22.245Z,95.23
2023-12-07T02:58:48.658Z,95.33
2023-12-07T03:01:15.721Z,95.19
2023-12-07T03:03:43.256Z,94.95
2023-12-07T03:06:09.918Z,94.79
2023-12-07T03:08:36.725Z,94.74
2023-12-07T03:11:03.223Z,94.68
2023-12-07T03:13:29.975Z,94.75
2023-12-07T03:15:56.636Z,94.68
2023-12-07T03:18:23.219Z,94.55
2023-12-07T03:20:51.613Z,94.54
2023-12-07T03:23:18.228Z,94.32
2023-12-07T03:25:44.809Z,94.14
2023-12-07T03:28:11.551Z,94.03
2023-12-07T03:30:38.534Z,93.95
2023-12-07T03:33:05.113Z,93.92
2023-12-07T03:35:31.757Z,93.30
2023-12-07T03:37:58.753Z,93.41
2023-12-07T03:40:25.361Z,93.31
2023-12-07T03:42:56.795Z,93.18
2023-12-07T03:45:24.165Z,93.48
2023-12-07T03:47:50.880Z,93.50
2023-12-07T03:50:17.473Z,92.86
2023-12-07T03:52:43.935Z,92.50
2023-12-07T03:55:12.054Z,92.91
2023-12-07T03:57:38.945Z,92.64
2023-12-07T04:00:09.972Z,92.20
2023-12-07T04:02:36.469Z,92.25
2023-12-07T04:05:03.364Z,92.10
2023-12-07T04:07:33.125Z,91.66
2023-12-07T04:09:59.669Z,91.45
2023-12-07T04:12:27.916Z,91.36
2023-12-07T04:14:54.537Z,91.34
2023-12-07T04:17:22.309Z,91.72
2023-12-07T04:19:48.933Z,91.87
2023-12-07T04:22:15.585Z,91.56
2023-12-07T04:24:42.048Z,91.14
2023-12-07T04:27:08.638Z,90.88
2023-12-07T04:29:35.076Z,90.92
2023-12-07T04:32:01.508Z,91.00
2023-12-07T04:34:27.935Z,91.26
2023-12-07T04:36:54.787Z,91.69
2023-12-07T04:39:21.382Z,91.89
2023-12-07T04:41:47.873Z,92.64
2023-12-07T04:44:14.346Z,93.11
2023-12-07T04:46:41.003Z,92.79
2023-12-07T04:49:07.672Z,93.20
2023-12-07T04:51:37.517Z,93.32
2023-12-07T04:54:12.513Z,93.41
2023-12-07T04:56:43.330Z,92.82
2023-12-07T04:59:11.117Z,93.67
2023-12-07T05:01:38.014Z,93.54
2023-12-07T05:04:05.522Z,94.27
2023-12-07T05:06:32.541Z,94.73
2023-12-07T05:08:59.141Z,94.72
2023-12-07T05:11:25.947Z,94.96
2023-12-07T05:13:52.626Z,95.12
2023-12-07T05:16:19.428Z,95.29
2023-12-07T05:18:45.963Z,95.36
2023-12-07T05:21:12.944Z,95.34
2023-12-07T05:23:40.059Z,95.16
2023-12-07T05:26:09.038Z,94.99
2023-12-07T05:28:37.596Z,94.99
2023-12-07T05:31:04.265Z,94.89
2023-12-07T05:33:30.894Z,94.85
2023-12-07T05:35:58.075Z,94.81
2023-12-07T05:38:24.586Z,94.67
2023-12-07T05:40:51.144Z,94.64
2023-12-07T05:43:19.623Z,94.72
2023-12-07T05:45:46.780Z,94.45
2023-12-07T05:48:13.437Z,94.40
2023-12-07T05:50:40.749Z,94.50
2023-12-07T05:53:10.178Z,94.35
2023-12-07T05:55:37.275Z,94.30
2023-12-07T05:58:07.463Z,94.32
2023-12-07T06:00:33.969Z,94.38
2023-12-07T06:03:00.681Z,94.21
2023-12-07T06:05:27.314Z,94.33
2023-12-07T06:07:55.264Z,94.49
2023-12-07T06:10:21.877Z,94.33
2023-12-07T06:12:48.662Z,94.33
2023-12-07T06:15:15.214Z,94.25
2023-12-07T06:17:41.686Z,94.56
2023-12-07T06:20:08.570Z,94.83
2023-12-07T06:22:35.023Z,94.78
2023-12-07T06:25:02.209Z,94.70
2023-12-07T06:27:28.827Z,94.34
2023-12-07T06:29:55.846Z,94.26
2023-12-07T06:32:22.774Z,94.55
2023-12-07T06:34:49.420Z,94.89
2023-12-07T06:37:15.960Z,95.00
2023-12-07T06:39:42.498Z,94.94
2023-12-07T06:42:08.981Z,95.07
2023-12-07T06:44:36.315Z,95.19
2023-12-07T06:47:05.608Z,95.26
2023-12-07T06:49:42.721Z,95.35
2023-12-07T06:52:16.718Z,95.36
2023-12-07T06:54:43.303Z,95.24
2023-12-07T06:57:09.835Z,95.38
2023-12-07T06:59:36.264Z,95.28
2023-12-07T07:02:03.276Z,95.30
2023-12-07T07:04:31.109Z,95.24
2023-12-07T07:06:58.141Z,95.35
2023-12-07T07:09:24.641Z,95.32
2023-12-07T07:11:51.386Z,95.44
2023-12-07T07:14:18.285Z,95.42
2023-12-07T07:16:45.214Z,95.35
2023-12-07T07:19:12.269Z,95.44
2023-12-07T07:21:38.835Z,95.47
2023-12-07T07:24:07.099Z,95.51
2023-12-07T07:26:34.248Z,95.46
2023-12-07T07:32:36.059Z,95.51
2023-12-07T07:35:04.040Z,95.51
2023-12-07T07:37:30.742Z,95.42
2023-12-07T07:39:57.300Z,95.19
2023-12-07T07:42:23.718Z,95.03
2023-12-07T07:44:50.182Z,94.79
2023-12-07T07:47:16.851Z,94.78
2023-12-07T07:49:43.375Z,94.51
2023-12-07T07:52:09.910Z,94.57
2023-12-07T07:54:38.055Z,94.47
2023-12-07T07:57:05.599Z,94.48
2023-12-07T07:59:32.518Z,94.25
2023-12-07T08:01:59.238Z,94.05
2023-12-07T08:04:26.087Z,93.86
2023-12-07T08:06:52.571Z,93.70
2023-12-07T08:09:19.034Z,93.32
2023-12-07T08:11:48.189Z,92.74
2023-12-07T08:14:14.686Z,92.29
2023-12-07T08:16:45.882Z,92.27
2023-12-07T08:19:12.771Z,91.59
2023-12-07T08:21:39.963Z,91.60
2023-12-07T08:24:07.027Z,91.87
2023-12-07T08:26:33.531Z,91.77
2023-12-07T08:28:59.978Z,91.41
2023-12-07T08:31:26.646Z,91.00
2023-12-07T08:33:53.774Z,90.63
2023-12-07T08:36:20.429Z,90.30
2023-12-07T08:38:47.312Z,89.35
2023-12-07T08:41:15.018Z,88.64
2023-12-07T08:43:41.854Z,88.12
2023-12-07T08:46:08.463Z,87.33
2023-12-07T08:48:36.589Z,87.93
2023-12-07T08:51:04.754Z,87.13
2023-12-07T08:53:31.944Z,87.40
2023-12-07T08:55:59.295Z,87.06
2023-12-07T08:58:25.835Z,87.41
2023-12-07T09:00:53.164Z,87.39
2023-12-07T09:03:19.740Z,86.72
2023-12-07T09:05:46.411Z,86.00
2023-12-07T09:08:13.211Z,85.23
2023-12-07T09:10:39.765Z,84.98
2023-12-07T09:13:06.679Z,83.07
2023-12-07T09:15:33.297Z,83.98
2023-12-07T09:18:00.346Z,84.07
2023-12-07T09:20:27.345Z,83.59
2023-12-07T09:22:56.048Z,83.58
2023-12-07T09:25:22.703Z,83.34
2023-12-07T09:27:49.591Z,83.18
2023-12-07T09:30:16.062Z,82.07
2023-12-07T09:32:45.339Z,82.76
2023-12-07T09:35:19.888Z,82.10
2023-12-07T09:37:47.232Z,83.00
2023-12-07T09:40:19.118Z,82.59
2023-12-07T09:42:46.402Z,81.90
2023-12-07T09:45:15.092Z,81.16
2023-12-07T09:47:53.275Z,81.36
2023-12-07T09:50:24.269Z,80.35
2023-12-07T09:53:06.660Z,82.15
2023-12-07T09:55:36.546Z,81.16
2023-12-07T09:58:08.717Z,81.72
2023-12-07T10:00:37.404Z,80.56
2023-12-07T10:03:05.541Z,80.84
2023-12-07T10:05:32.276Z,81.92
2023-12-07T10:07:58.820Z,83.34
2023-12-07T10:10:27.035Z,84.21
2023-12-07T10:12:59.757Z,85.35
2023-12-07T10:15:31.977Z,86.13
2023-12-07T10:18:00.150Z,85.98
2023-12-07T10:20:29.641Z,85.41
2023-12-07T10:23:04.649Z,85.97
2023-12-07T10:25:37.470Z,85.41
2023-12-07T10:28:09.172Z,85.67
2023-12-07T10:30:36.686Z,85.98
2023-12-07T10:33:08.554Z,86.07
2023-12-07T10:35:43.523Z,85.99
2023-12-07T10:38:11.395Z,86.21
2023-12-07T10:40:38.460Z,86.19
2023-12-07T10:43:09.318Z,86.11
2023-12-07T10:45:38.219Z,85.33
2023-12-07T10:48:08.052Z,85.79
2023-12-07T10:50:57.242Z,85.03
2023-12-07T10:53:41.106Z,84.65
2023-12-07T10:56:21.354Z,84.36
2023-12-07T10:58:50.018Z,84.23
2023-12-07T11:01:18.655Z,84.16
2023-12-07T11:03:47.086Z,84.51
2023-12-07T11:06:14.539Z,84.34
2023-12-07T11:08:44.070Z,84.18
2023-12-07T11:11:32.708Z,83.81
2023-12-07T11:14:06.211Z,83.99
2023-12-07T11:16:38.001Z,84.18
2023-12-07T11:19:10.655Z,84.75
2023-12-07T11:21:38.628Z,84.54
2023-12-07T11:24:05.580Z,84.36
2023-12-07T11:26:32.213Z,84.21
2023-12-07T11:28:58.882Z,84.16
2023-12-07T11:31:27.069Z,82.21
2023-12-07T11:33:54.623Z,81.17
2023-12-07T11:36:21.492Z,81.55
2023-12-07T11:39:15.353Z,82.59
2023-12-07T11:41:51.686Z,82.21
2023-12-07T11:44:18.835Z,83.02
2023-12-07T11:46:51.532Z,83.75
2023-12-07T11:49:28.650Z,83.56
2023-12-07T11:52:00.949Z,83.22
2023-12-07T11:54:28.186Z,82.70
2023-12-07T11:56:58.725Z,82.23
2023-12-07T11:59:38.552Z,81.96
2023-12-07T12:02:06.294Z,80.29
2023-12-07T12:04:39.653Z,79.91
2023-12-07T12:07:06.433Z,80.24
2023-12-07T12:09:35.589Z,80.25
2023-12-07T12:12:02.510Z,79.16
2023-12-07T12:14:32.981Z,78.44
2023-12-07T12:16:59.858Z,78.11
2023-12-07T12:19:32.825Z,77.45
2023-12-07T12:22:05.981Z,77.46
2023-12-07T12:24:36.174Z,77.20
2023-12-07T12:27:04.578Z,77.78
2023-12-07T12:29:34.457Z,77.76
2023-12-07T12:32:07.339Z,77.84
2023-12-07T12:34:35.651Z,77.25
2023-12-07T12:37:10.708Z,77.23
2023-12-07T12:39:37.390Z,76.86
2023-12-07T12:42:05.594Z,76.83
2023-12-07T12:44:37.000Z,77.21
2023-12-07T12:47:13.107Z,77.52
2023-12-07T12:49:41.502Z,75.99
2023-12-07T12:52:12.075Z,75.68
2023-12-07T12:54:40.063Z,75.69
2023-12-07T12:57:09.820Z,76.01
2023-12-07T12:59:36.957Z,76.18
2023-12-07T13:02:06.691Z,74.86
2023-12-07T13:04:41.193Z,75.01
2023-12-07T13:07:09.302Z,75.01
2023-12-07T13:09:36.181Z,75.36
2023-12-07T13:12:05.561Z,75.44
2023-12-07T13:14:36.720Z,74.24
2023-12-07T13:17:05.479Z,75.25
2023-12-07T13:19:33.328Z,75.96
2023-12-07T13:22:00.511Z,76.42
2023-12-07T13:24:27.188Z,76.26
2023-12-07T13:26:53.737Z,75.89
2023-12-07T13:29:29.171Z,74.79
2023-12-07T13:32:02.161Z,74.32
2023-12-07T13:34:28.920Z,74.05
2023-12-07T13:36:55.415Z,74.32
2023-12-07T13:39:30.129Z,73.81
2023-12-07T13:41:58.537Z,73.76
2023-12-07T13:44:28.084Z,73.31
2023-12-07T13:46:55.550Z,72.78
2023-12-07T13:49:31.710Z,73.06
2023-12-07T13:52:05.161Z,73.52
2023-12-07T13:54:47.001Z,73.74
2023-12-07T13:57:25.678Z,74.25
2023-12-07T13:59:53.276Z,74.74
2023-12-07T14:02:20.229Z,74.96
2023-12-07T14:04:50.876Z,74.23
2023-12-07T14:07:22.691Z,74.55
2023-12-07T14:09:57.342Z,74.90
2023-12-07T14:12:26.749Z,74.89
2023-12-07T14:14:53.535Z,75.43
2023-12-07T14:17:21.355Z,76.07
2023-12-07T14:19:51.756Z,76.47
2023-12-07T14:22:19.655Z,77.06
2023-12-07T14:24:46.528Z,77.47
2023-12-07T14:27:13.124Z,77.25
2023-12-07T14:29:40.379Z,77.56
2023-12-07T14:32:07.113Z,77.49
2023-12-07T14:34:35.672Z,77.74
2023-12-07T14:37:06.229Z,78.13
2023-12-07T14:39:33.027Z,78.14
2023-12-07T14:41:59.662Z,78.46
2023-12-07T14:44:29.635Z,78.78
2023-12-07T14:46:57.430Z,79.15
2023-12-07T14:49:24.962Z,79.41
2023-12-07T14:51:52.662Z,79.21
2023-12-07T14:54:23.094Z,79.52
2023-12-07T14:56:53.929Z,79.63
2023-12-07T14:59:23.630Z,79.48
2023-12-07T15:01:51.576Z,79.47
2023-12-07T15:04:27.888Z,79.48
2023-12-07T15:06:59.991Z,79.66
2023-12-07T15:09:26.471Z,79.86
2023-12-07T15:11:52.997Z,79.96
2023-12-07T15:14:33.211Z,80.33
2023-12-07T15:17:14.641Z,80.48
2023-12-07T15:19:43.937Z,80.92
2023-12-07T15:22:11.356Z,81.04
2023-12-07T15:24:39.965Z,81.43
2023-12-07T15:27:08.841Z,81.65
2023-12-07T15:29:37.935Z,82.04
2023-12-07T15:32:06.009Z,82.52
2023-12-07T15:34:38.684Z,82.53
2023-12-07T15:37:15.583Z,82.53
2023-12-07T15:39:47.263Z,82.67
2023-12-07T15:42:13.970Z,82.60
2023-12-07T15:44:40.957Z,82.74
2023-12-07T15:47:08.297Z,83.15
2023-12-07T15:49:43.998Z,83.18
2023-12-07T15:52:12.281Z,83.12
2023-12-07T15:54:42.305Z,83.11
2023-12-07T15:57:10.714Z,82.94
2023-12-07T15:59:38.593Z,83.11
2023-12-07T16:02:05.481Z,83.13
2023-12-07T16:04:34.724Z,83.29
2023-12-07T16:07:09.814Z,83.33
2023-12-07T16:09:39.250Z,83.04
2023-12-07T16:12:09.488Z,82.74
2023-12-07T16:14:39.657Z,82.90
2023-12-07T16:17:10.336Z,83.25
2023-12-07T16:19:37.105Z,82.65
2023-12-07T16:22:03.976Z,82.90
2023-12-07T16:24:31.992Z,82.81
2023-12-07T16:27:02.515Z,82.83
2023-12-07T16:29:32.961Z,82.95
2023-12-07T16:31:59.973Z,82.96
2023-12-07T16:34:28.058Z,82.96
2023-12-07T16:36:54.823Z,82.89
2023-12-07T16:39:21.562Z,82.77
2023-12-07T16:41:55.612Z,82.18
2023-12-07T16:44:27.969Z,82.23
2023-12-07T16:46:54.469Z,82.59
2023-12-07T16:49:20.996Z,82.85
2023-12-07T16:51:47.504Z,82.69
2023-12-07T16:54:14.303Z,82.80
2023-12-07T16:56:40.942Z,82.96
2023-12-07T16:59:07.444Z,82.79
2023-12-07T17:01:34.467Z,82.61
2023-12-07T17:04:05.151Z,82.73
2023-12-07T17:06:33.499Z,82.86
2023-12-07T17:09:11.350Z,82.92
2023-12-07T17:11:42.276Z,83.28
2023-12-07T17:14:09.605Z,83.43
2023-12-07T17:16:36.461Z,83.49
2023-12-07T17:19:03.159Z,83.49
2023-12-07T17:21:31.156Z,83.45
2023-12-07T17:24:00.638Z,83.42
2023-12-07T17:26:33.107Z,83.56
2023-12-07T17:29:03.014Z,83.75
2023-12-07T17:31:29.484Z,83.84
2023-12-07T17:33:58.520Z,83.91
2023-12-07T17:36:26.498Z,83.83
2023-12-07T17:38:55.625Z,83.79
2023-12-07T17:41:22.394Z,84.02
2023-12-07T17:43:49.184Z,84.04
2023-12-07T17:46:16.281Z,84.05
2023-12-07T17:48:42.883Z,83.74
2023-12-07T17:51:09.879Z,84.04
2023-12-07T17:53:36.973Z,84.03
2023-12-07T17:56:04.478Z,83.95
2023-12-07T17:58:31.128Z,84.12
2023-12-07T18:00:57.645Z,84.21
2023-12-07T18:03:26.152Z,84.20
2023-12-07T18:05:52.773Z,84.58
2023-12-07T18:08:19.238Z,84.62
2023-12-07T18:10:45.826Z,84.46
2023-12-07T18:13:12.447Z,84.34
2023-12-07T18:15:38.877Z,84.50
2023-12-07T18:18:05.445Z,84.32
2023-12-07T18:20:32.034Z,84.37
2023-12-07T18:22:59.524Z,84.22
2023-12-07T18:25:26.277Z,84.40
2023-12-07T18:27:53.178Z,84.23
2023-12-07T18:30:19.634Z,84.14
2023-12-07T18:32:48.281Z,84.37
2023-12-07T18:35:15.095Z,84.26
2023-12-07T18:37:41.710Z,84.13
2023-12-07T18:40:09.096Z,84.24
2023-12-07T18:42:35.614Z,84.41
2023-12-07T18:45:02.368Z,84.68
2023-12-07T18:47:29.371Z,84.68
2023-12-07T18:49:56.343Z,84.66
2023-12-07T18:52:24.296Z,84.67
2023-12-07T18:57:38.847Z,84.36
2023-12-07T19:00:06.070Z,84.33
2023-12-07T19:02:32.706Z,84.47
2023-12-07T19:04:59.441Z,84.47
2023-12-07T19:07:26.296Z,84.49
2023-12-07T19:09:53.019Z,84.50
2023-12-07T19:12:19.426Z,84.62
2023-12-07T19:14:45.891Z,84.63
2023-12-07T19:17:12.487Z,84.68
2023-12-07T19:19:38.968Z,84.71
2023-12-07T19:22:05.784Z,84.81
2023-12-07T19:24:32.403Z,84.75
2023-12-07T19:27:00.142Z,84.58
2023-12-07T19:29:27.869Z,84.82
2023-12-07T19:31:54.472Z,84.95
2023-12-07T19:34:23.283Z,84.87
2023-12-07T19:36:50.302Z,84.73
2023-12-07T19:39:19.796Z,84.79
2023-12-07T19:41:46.666Z,85.00
2023-12-07T19:44:14.609Z,84.91
2023-12-07T19:46:41.649Z,84.90
2023-12-07T19:49:09.323Z,84.84
2023-12-07T19:51:36.497Z,84.97
2023-12-07T19:54:03.462Z,85.16
2023-12-07T19:56:38.659Z,85.04
2023-12-07T19:59:05.150Z,84.91
2023-12-07T20:01:31.774Z,85.03
2023-12-07T20:03:58.387Z,84.93
2023-12-07T20:06:33.585Z,84.95
2023-12-07T20:09:03.457Z,84.75
2023-12-07T20:11:31.485Z,84.82
2023-12-07T20:14:00.587Z,84.90
2023-12-07T20:16:27.086Z,84.62
2023-12-07T20:18:53.699Z,84.64
2023-12-07T20:21:20.396Z,84.61
2023-12-07T20:23:47.040Z,84.49
2023-12-07T20:26:18.652Z,84.32
2023-12-07T20:28:47.343Z,84.24
2023-12-07T20:31:14.700Z,84.42
2023-12-07T20:33:44.345Z,84.44
2023-12-07T20:36:12.209Z,84.45
2023-12-07T20:38:39.089Z,84.38
2023-12-07T20:41:07.461Z,84.21
2023-12-07T20:43:33.994Z,84.23
2023-12-07T20:46:04.882Z,84.33
2023-12-07T20:48:35.406Z,84.25
2023-12-07T20:51:02.095Z,84.35
2023-12-07T20:53:29.045Z,84.33
2023-12-07T20:55:56.466Z,84.14
2023-12-07T20:58:22.990Z,84.02
2023-12-07T21:00:50.260Z,83.99
2023-12-07T21:03:17.116Z,83.98
2023-12-07T21:05:43.719Z,84.24
2023-12-07T21:08:10.647Z,84.11
2023-12-07T21:10:37.284Z,83.99
2023-12-07T21:13:06.223Z,83.92
2023-12-07T21:15:32.896Z,83.77
2023-12-07T21:17:59.538Z,83.49
2023-12-07T21:20:26.813Z,83.59
2023-12-07T21:22:53.350Z,83.35
2023-12-07T21:25:20.038Z,83.38
2023-12-07T21:27:46.640Z,83.09
2023-12-07T21:30:13.631Z,83.11
2023-12-07T21:32:41.676Z,83.08
2023-12-07T21:35:09.461Z,82.92
2023-12-07T21:37:36.367Z,82.65
2023-12-07T21:40:04.097Z,82.30
2023-12-07T21:42:30.763Z,82.39
2023-12-07T21:44:57.273Z,82.16
2023-12-07T21:47:24.142Z,81.70
2023-12-07T21:49:50.938Z,81.54
2023-12-07T21:52:17.376Z,81.37
2023-12-07T21:54:44.163Z,81.34
2023-12-07T21:57:10.621Z,80.97
2023-12-07T21:59:37.179Z,80.58
2023-12-07T22:02:03.934Z,80.49
2023-12-07T22:04:30.470Z,80.05
2023-12-07T22:06:57.580Z,79.80
2023-12-07T22:09:24.405Z,79.28
2023-12-07T22:11:50.978Z,79.26
2023-12-07T22:14:17.697Z,79.27
2023-12-07T22:16:44.620Z,79.20
2023-12-07T22:19:15.699Z,78.55
2023-12-07T22:21:42.457Z,78.52
2023-12-07T22:24:09.627Z,78.16
2023-12-07T22:26:36.306Z,77.98
2023-12-07T22:29:02.800Z,77.68
2023-12-07T22:31:29.280Z,77.00
2023-12-07T22:34:00.707Z,77.22
2023-12-07T22:36:28.480Z,77.06
2023-12-07T22:38:55.053Z,76.32
2023-12-07T22:41:21.590Z,76.34
2023-12-07T22:43:48.192Z,76.60
2023-12-07T22:46:15.142Z,76.28
2023-12-07T22:48:41.960Z,75.92
2023-12-07T22:51:08.631Z,75.78
2023-12-07T22:53:35.086Z,75.67
2023-12-07T22:56:01.632Z,75.38
2023-12-07T22:58:28.229Z,74.61
2023-12-07T23:00:54.850Z,74.62
2023-12-07T23:03:21.384Z,74.29
2023-12-07T23:05:47.920Z,74.44
2023-12-07T23:08:14.370Z,74.22
2023-12-07T23:10:40.800Z,73.92
2023-12-07T23:13:08.810Z,73.83
2023-12-07T23:15:35.466Z,73.40
2023-12-07T23:18:02.351Z,73.52
2023-12-07T23:20:29.416Z,73.29
2023-12-07T23:22:56.299Z,73.78
2023-12-07T23:25:23.077Z,73.47
2023-12-07T23:27:49.862Z,73.90
2023-12-07T23:30:16.665Z,73.66
2023-12-07T23:32:43.261Z,73.46
2023-12-07T23:35:11.291Z,73.53
2023-12-07T23:37:37.728Z,73.71
2023-12-07T23:40:05.566Z,73.56
2023-12-07T23:42:32.009Z,73.75
2023-12-07T23:44:58.489Z,74.51
2023-12-07T23:47:25.264Z,74.73
2023-12-07T23:49:51.925Z,74.56
2023-12-07T23:52:18.452Z,74.34
2023-12-07T23:54:45.714Z,74.83
2023-12-07T23:57:12.234Z,74.98
2023-12-07T23:59:38.771Z,75.62
